Date,TemperatureHighF,TemperatureAvgF,TemperatureLowF,DewpointHighF,DewpointAvgF,DewpointLowF,HumidityHigh,HumidityAvg,HumidityLow,PressureMaxIn,PressureMinIn,WindSpeedMaxMPH,WindSpeedAvgMPH,GustSpeedMaxMPH,PrecipitationSumIn
2013-3-1,40.3,35.1,30.9,29.0,26.7,24.0,80,72,63,30.03,29.95,17,6,0,0.00
2013-3-2,39.9,34.1,31.1,29.0,26.9,21.0,89,76,48,29.99,29.93,15,8,0,0.00
2013-3-3,34.2,29.7,25.0,18.0,15.9,14.0,65,57,50,30.12,30.02,22,11,0,0.00
2013-3-4,50.5,36.6,24.5,24.0,17.3,14.0,66,48,28,30.28,30.12,9,3,0,0.00
2013-3-5,47.4,43.1,36.4,46.0,35.3,24.0,98,76,44,30.18,29.72,14,2,0,0.56
2013-3-6,37.1,32.1,28.6,29.0,23.2,17.0,85,70,53,30.19,29.75,31,10,0,0.00
2013-3-7,50.1,35.8,28.2,30.0,26.0,24.0,86,70,43,30.35,30.17,26,8,0,0.00
2013-3-8,53.6,40.5,29.3,24.0,16.7,2.0,75,44,13,30.41,30.31,26,9,0,0.00
2013-3-9,58.9,48.9,39.6,29.0,23.2,12.0,49,37,26,30.42,30.32,14,2,0,0.00
2013-3-10,62.0,53.4,46.3,36.0,31.8,28.0,54,45,35,30.35,30.22,10,2,0,0.00
2013-3-11,57.5,50.5,46.3,52.0,45.8,35.0,98,85,54,30.23,29.89,11,3,0,0.92
2013-3-12,56.2,48.8,39.7,53.0,40.6,24.0,99,76,45,30.06,29.81,21,8,0,0.85
2013-3-13,50.9,41.2,30.9,30.0,22.2,17.0,65,48,30,30.23,30.06,21,6,0,0.00
2013-3-14,51.1,35.2,24.6,19.0,14.6,7.0,65,46,25,30.41,30.23,28,7,0,0.00
2013-3-15,67.8,49.6,35.3,41.0,26.9,13.0,52,42,26,30.30,30.03,17,5,0,0.00
2013-3-16,74.3,61.8,51.4,47.0,43.2,41.0,70,52,34,30.02,29.82,17,4,0,0.00
2013-3-17,70.7,61.8,48.2,49.0,45.3,43.0,83,56,40,30.04,29.89,14,4,0,0.00
2013-3-18,47.1,40.9,37.3,44.0,39.7,36.0,98,95,83,30.11,29.96,16,2,0,0.62
2013-3-19,61.4,49.2,40.8,46.0,30.5,13.0,98,56,21,30.14,29.95,27,6,0,0.01
2013-3-20,52.8,43.5,34.2,31.0,11.6,5.0,86,28,20,30.17,29.90,22,7,0,0.00
2013-3-21,40.7,31.2,22.7,30.0,15.4,11.0,90,54,33,30.05,29.86,23,9,0,0.00
2013-3-22,46.7,34.7,26.3,24.0,16.3,11.0,56,48,35,30.18,30.07,16,3,0,0.00
2013-3-23,53.6,44.5,39.6,44.0,36.6,24.0,96,75,51,30.15,29.97,9,1,0,0.03
2013-3-24,43.1,40.3,36.7,42.0,39.2,36.0,98,96,91,30.00,29.62,12,3,0,1.02
2013-3-25,39.9,34.6,29.7,37.0,24.4,19.0,98,68,46,30.02,29.64,15,4,0,0.00
2013-3-26,39.9,32.8,28.3,25.0,21.8,19.0,81,65,49,30.30,30.00,25,6,0,0.00
2013-3-27,49.5,36.5,28.8,26.0,23.3,19.0,82,61,40,30.38,30.29,19,6,0,0.00
2013-3-28,54.6,41.4,31.6,23.0,19.6,15.0,67,45,21,30.40,30.28,20,6,0,0.00
2013-3-29,57.7,45.4,38.7,38.0,25.8,18.0,82,48,29,30.42,30.29,14,4,0,0.00
2013-3-30,61.0,52.1,43.8,44.0,39.1,36.0,82,63,42,30.30,30.12,10,3,0,0.01
2013-3-31,61.7,52.8,47.7,55.0,50.4,39.0,98,92,55,30.13,29.90,12,2,0,0.47